Time;durP1;ratioP1;P1;durP2;ratioP2;P2;SDS_P1;SDS_P2;PMS_P1;PMS_P2;Temp;Humidity;BMP_temperature;BMP_pressure;BME280_temperature;BME280_humidity;BME280_pressure;Samples;Min_cycle;Max_cycle;Signal;HPM_P1;HPM_P2
2021/04/11 00:00:55;;;;;;;16.08;14.13;;;;;;;10.55;100.00;98622.44;4995412;28;20270;-74
2021/04/11 00:03:23;;;;;;;17.25;13.73;;;;;;;10.49;100.00;98622.91;4994754;28;20229;-73
2021/04/11 00:05:50;;;;;;;14.70;13.20;;;;;;;10.68;100.00;98617.88;4995203;28;20542;-75
2021/04/11 00:08:17;;;;;;;14.40;13.00;;;;;;;10.56;100.00;98616.97;4994990;28;20282;-74
2021/04/11 00:10:47;;;;;;;16.50;14.07;;;;;;;10.76;100.00;98622.69;4994923;28;20610;-75
2021/04/11 00:13:17;;;;;;;15.40;13.80;;;;;;;10.77;100.00;98610.97;4994781;28;20226;-74
2021/04/11 00:15:47;;;;;;;16.13;12.50;;;;;;;10.71;100.00;98617.66;4994413;28;20303;-73
2021/04/11 00:18:13;;;;;;;14.13;12.70;;;;;;;10.77;100.00;98610.97;4994619;28;20188;-73
2021/04/11 00:20:40;;;;;;;20.48;16.25;;;;;;;10.85;100.00;98608.53;4994195;28;20207;-74
2021/04/11 00:23:06;;;;;;;17.38;14.00;;;;;;;10.88;100.00;98602.06;4994316;28;20234;-73
2021/04/11 00:25:37;;;;;;;15.35;13.73;;;;;;;10.79;100.00;98603.63;4994564;28;20279;-73
2021/04/11 00:28:04;;;;;;;14.38;12.38;;;;;;;10.62;100.00;98599.50;4994265;28;20187;-73
2021/04/11 00:30:33;;;;;;;15.98;14.30;;;;;;;10.60;100.00;98604.97;4993970;28;20282;-73
2021/04/11 00:33:01;;;;;;;15.00;12.90;;;;;;;10.60;100.00;98585.28;4994270;28;20250;-74
2021/04/11 00:35:28;;;;;;;14.10;11.73;;;;;;;10.60;100.00;98591.50;4994512;28;20226;-73
2021/04/11 00:37:55;;;;;;;16.40;13.07;;;;;;;10.64;100.00;98573.31;4994567;28;20191;-73
2021/04/11 00:40:24;;;;;;;12.98;11.25;;;;;;;10.61;100.00;98571.72;4994617;28;20243;-73
2021/04/11 00:42:56;;;;;;;12.75;10.50;;;;;;;10.61;100.00;98569.03;4994565;28;20208;-73
2021/04/11 00:45:28;;;;;;;11.27;10.13;;;;;;;10.57;100.00;98564.00;4994406;28;20234;-73
2021/04/11 00:47:55;;;;;;;11.75;9.90;;;;;;;10.55;100.00;98560.56;4993716;28;20275;-74
2021/04/11 00:50:23;;;;;;;11.98;9.98;;;;;;;10.63;100.00;98558.16;4994201;28;20278;-74
2021/04/11 00:52:51;;;;;;;13.32;9.60;;;;;;;10.74;100.00;98554.63;4994595;28;20314;-73
2021/04/11 00:55:20;;;;;;;11.73;10.52;;;;;;;10.66;100.00;98555.22;4994558;28;20951;-74
2021/04/11 00:57:48;;;;;;;10.57;9.48;;;;;;;10.61;100.00;98552.03;4994272;28;20242;-73
2021/04/11 01:00:16;;;;;;;12.50;9.25;;;;;;;10.67;100.00;98556.94;4994476;28;20299;-74
2021/04/11 01:02:42;;;;;;;14.02;9.52;;;;;;;10.59;100.00;98549.44;4994163;28;20242;-74
2021/04/11 01:05:13;;;;;;;10.57;9.27;;;;;;;10.82;100.00;98554.91;4994053;28;20243;-74
2021/04/11 01:07:41;;;;;;;10.32;9.32;;;;;;;10.89;100.00;98548.09;4994093;28;20222;-74
2021/04/11 01:10:10;;;;;;;10.20;7.10;;;;;;;11.08;100.00;98550.25;4994226;28;20622;-74
2021/04/11 01:12:37;;;;;;;9.32;7.40;;;;;;;11.18;97.95;98543.16;4993927;28;20565;-75
2021/04/11 01:15:07;;;;;;;8.85;7.80;;;;;;;11.32;95.47;98541.22;4994157;28;20249;-73
2021/04/11 01:17:34;;;;;;;10.85;7.47;;;;;;;11.40;94.16;98545.06;4993184;28;20195;-73
2021/04/11 01:20:00;;;;;;;8.75;7.75;;;;;;;11.46;93.32;98528.41;4994025;28;20317;-73
2021/04/11 01:22:36;;;;;;;10.27;7.20;;;;;;;11.47;91.55;98540.88;4993229;28;20312;-74
2021/04/11 01:25:08;;;;;;;9.40;7.32;;;;;;;11.52;90.75;98532.44;4993414;28;20191;-74
2021/04/11 01:27:37;;;;;;;8.70;6.95;;;;;;;11.66;89.01;98542.13;4993775;28;20195;-73
2021/04/11 01:30:09;;;;;;;5.55;4.60;;;;;;;11.75;85.37;98529.75;4993622;28;20639;-74
2021/04/11 01:32:36;;;;;;;4.72;4.05;;;;;;;11.79;83.98;98537.47;4993090;28;20302;-73
2021/04/11 01:35:04;;;;;;;5.97;3.35;;;;;;;11.85;80.22;98538.84;4993738;28;20270;-74
2021/04/11 01:37:30;;;;;;;4.40;3.10;;;;;;;11.93;79.02;98536.41;4993053;28;20294;-73
2021/04/11 01:39:57;;;;;;;6.40;4.18;;;;;;;11.88;78.96;98534.06;4993043;28;20321;-73
2021/04/11 01:42:24;;;;;;;6.07;3.20;;;;;;;11.95;78.11;98525.50;4993319;28;20247;-74
2021/04/11 01:44:52;;;;;;;3.70;3.17;;;;;;;11.84;78.35;98532.56;4993038;28;20274;-74
2021/04/11 01:47:19;;;;;;;6.15;3.63;;;;;;;11.94;78.06;98526.47;4992737;28;20322;-74
2021/04/11 01:49:46;;;;;;;4.05;3.50;;;;;;;11.98;78.04;98528.78;4993001;28;20314;-73
2021/04/11 01:52:17;;;;;;;4.55;3.53;;;;;;;11.87;77.92;98535.06;4993388;28;20218;-73
2021/04/11 01:54:45;;;;;;;4.90;3.47;;;;;;;11.98;78.22;98527.94;4992710;28;20203;-73
2021/04/11 01:57:17;;;;;;;4.55;3.80;;;;;;;12.12;77.40;98530.38;4992963;28;20184;-74
2021/04/11 01:59:44;;;;;;;3.00;2.80;;;;;;;12.21;76.79;98534.16;4993116;28;20516;-74
2021/04/11 02:02:14;;;;;;;4.85;3.50;;;;;;;12.22;76.37;98531.34;4992684;28;20207;-74
2021/04/11 02:04:40;;;;;;;4.75;2.78;;;;;;;12.25;76.73;98524.81;4992500;28;20275;-73
2021/04/11 02:07:09;;;;;;;4.07;3.05;;;;;;;12.26;76.05;98521.16;4992645;28;20581;-74
2021/04/11 02:09:37;;;;;;;3.15;2.95;;;;;;;12.24;76.04;98515.03;4992731;28;20249;-73
2021/04/11 02:12:06;;;;;;;3.55;2.90;;;;;;;12.22;75.94;98512.44;4992731;28;20194;-73
2021/04/11 02:14:33;;;;;;;4.30;2.75;;;;;;;12.16;75.94;98507.53;4992694;28;20270;-73
2021/04/11 02:17:00;;;;;;;3.55;2.70;;;;;;;12.15;76.02;98508.53;4993031;28;20207;-74
2021/04/11 02:19:28;;;;;;;4.30;3.05;;;;;;;12.20;75.73;98498.22;4992626;28;20701;-73
2021/04/11 02:22:06;;;;;;;8.05;4.18;;;;;;;12.13;75.61;98502.41;4992490;28;20243;-73
2021/04/11 02:24:33;;;;;;;3.83;2.88;;;;;;;12.02;76.13;98489.78;4992751;28;20261;-74
2021/04/11 02:26:59;;;;;;;3.42;2.90;;;;;;;12.06;76.22;98496.66;4992956;28;20198;-73
2021/04/11 02:29:28;;;;;;;3.17;2.65;;;;;;;12.02;76.27;98499.72;4992635;28;20204;-73
2021/04/11 02:31:54;;;;;;;5.25;3.22;;;;;;;11.92;76.49;98499.63;4993012;28;20266;-73
2021/04/11 02:34:24;;;;;;;3.78;3.10;;;;;;;11.88;75.99;98493.63;4992845;28;20191;-74
2021/04/11 02:36:54;;;;;;;8.07;3.63;;;;;;;11.80;75.80;98501.47;4992714;28;20286;-73
2021/04/11 02:39:24;;;;;;;3.70;3.20;;;;;;;11.90;75.86;98498.91;4992407;28;20212;-74
2021/04/11 02:41:50;;;;;;;3.65;3.30;;;;;;;11.74;76.06;98493.00;4992100;28;20230;-74
2021/04/11 02:44:17;;;;;;;4.22;3.28;;;;;;;11.73;76.44;98489.41;4994500;28;20685;-74
2021/04/11 02:46:44;;;;;;;3.70;2.70;;;;;;;11.75;75.81;98489.31;4996550;28;20595;-73
2021/04/11 02:49:13;;;;;;;5.10;3.35;;;;;;;11.78;75.82;98487.25;4996198;28;20191;-74
2021/04/11 02:51:41;;;;;;;4.78;3.28;;;;;;;11.92;74.98;98496.06;4996403;28;20209;-74
2021/04/11 02:54:11;;;;;;;4.85;2.80;;;;;;;11.98;75.19;98500.97;4996695;28;20618;-73
2021/04/11 02:56:39;;;;;;;4.55;2.92;;;;;;;11.94;75.31;98503.06;4996508;28;20618;-75
2021/04/11 02:59:13;;;;;;;3.72;3.05;;;;;;;12.00;75.40;98499.84;4996832;28;20696;-75
2021/04/11 03:01:55;;;;;;;4.00;2.40;;;;;;;12.05;75.02;98491.38;4996504;28;20645;-74
2021/04/11 03:04:23;;;;;;;5.60;2.90;;;;;;;12.00;75.42;98489.06;4996067;28;20610;-73
2021/04/11 03:06:56;;;;;;;5.82;3.40;;;;;;;12.00;75.87;98482.81;4996119;28;20187;-73
2021/04/11 03:09:30;;;;;;;3.17;2.88;;;;;;;12.00;74.76;98493.59;4995824;28;20275;-73
2021/04/11 03:11:57;;;;;;;6.00;2.60;;;;;;;12.02;74.64;98489.78;4995511;28;20192;-75
2021/04/11 03:14:28;;;;;;;4.60;3.25;;;;;;;12.04;74.70;98487.81;4995707;28;20206;-73
2021/04/11 03:16:55;;;;;;;5.78;3.40;;;;;;;11.99;74.73;98483.81;4995603;28;20192;-74
2021/04/11 03:19:35;;;;;;;2.80;2.60;;;;;;;12.01;74.14;98488.09;4996065;28;20580;-74
2021/04/11 03:22:02;;;;;;;5.28;3.15;;;;;;;12.07;73.74;98494.81;4995630;28;20239;-74
2021/04/11 03:24:28;;;;;;;3.15;2.88;;;;;;;12.07;73.18;98486.72;4995530;28;20298;-75
2021/04/11 03:27:02;;;;;;;3.72;2.70;;;;;;;12.08;74.15;98486.59;4996131;28;20654;-73
2021/04/11 03:29:36;;;;;;;4.20;3.28;;;;;;;12.03;73.87;98479.84;4995869;28;20215;-74
2021/04/11 03:32:07;;;;;;;6.40;3.30;;;;;;;12.12;73.56;98484.53;4995367;28;20290;-74
2021/04/11 03:34:35;;;;;;;5.72;3.30;;;;;;;12.00;74.17;98485.50;4995774;28;20620;-74
2021/04/11 03:37:04;;;;;;;3.65;3.05;;;;;;;12.12;73.79;98486.34;4995795;28;20198;-74
2021/04/11 03:39:33;;;;;;;4.43;2.65;;;;;;;12.17;73.47;98490.38;4995032;28;20199;-74
2021/04/11 03:42:03;;;;;;;7.25;3.60;;;;;;;12.14;72.70;98479.81;4995270;28;20192;-74
2021/04/11 03:44:29;;;;;;;5.45;3.40;;;;;;;12.05;73.04;98477.88;4995566;28;20777;-73
2021/04/11 03:47:00;;;;;;;5.82;3.75;;;;;;;12.08;73.27;98486.59;4995546;28;20210;-73
2021/04/11 03:49:30;;;;;;;3.25;2.95;;;;;;;11.99;73.95;98495.44;4995494;28;20302;-73
2021/04/11 03:52:01;;;;;;;4.28;2.90;;;;;;;12.04;73.44;98486.97;4994991;28;20195;-73
2021/04/11 03:54:34;;;;;;;4.18;3.00;;;;;;;12.03;73.02;98487.94;4995133;28;20212;-73
2021/04/11 03:57:07;;;;;;;5.00;3.20;;;;;;;11.91;74.29;98486.25;4995497;28;20606;-74
2021/04/11 03:59:36;;;;;;;3.38;3.15;;;;;;;11.95;73.97;98482.34;4995590;28;20192;-74
2021/04/11 04:02:05;;;;;;;4.80;3.10;;;;;;;11.89;73.81;98481.88;4995558;28;20188;-73
2021/04/11 04:04:33;;;;;;;3.70;2.92;;;;;;;11.92;73.51;98474.47;4994396;28;20293;-73
2021/04/11 04:07:08;;;;;;;5.25;3.15;;;;;;;11.82;74.16;98479.75;4994892;28;20193;-73
2021/04/11 04:09:37;;;;;;;4.47;2.95;;;;;;;11.75;74.27;98481.22;4995390;28;20641;-73
2021/04/11 04:12:20;;;;;;;3.22;2.90;;;;;;;11.61;74.82;98476.94;4995169;28;20187;-73
2021/04/11 04:15:08;;;;;;;7.05;3.55;;;;;;;11.58;75.13;98474.50;4995293;28;20210;-73
2021/04/11 04:17:42;;;;;;;4.68;3.22;;;;;;;11.43;75.62;98476.56;4995104;28;20191;-73
2021/04/11 04:20:14;;;;;;;4.65;2.88;;;;;;;11.43;75.66;98474.72;4994694;28;20218;-74
2021/04/11 04:22:57;;;;;;;3.95;3.45;;;;;;;11.44;75.43;98487.25;4994499;28;20235;-73
2021/04/11 04:25:46;;;;;;;5.15;3.17;;;;;;;11.33;75.93;98481.84;4994502;28;20183;-75
2021/04/11 04:28:21;;;;;;;4.35;2.58;;;;;;;11.35;75.87;98479.00;4995012;28;20183;-74
2021/04/11 04:30:56;;;;;;;4.30;3.05;;;;;;;11.30;75.61;98476.69;4993681;28;20194;-74
2021/04/11 04:33:51;;;;;;;5.15;3.20;;;;;;;11.24;76.01;98480.72;4994229;28;20187;-74
2021/04/11 04:36:30;;;;;;;5.28;3.33;;;;;;;11.10;76.72;98482.78;4993047;28;20609;-73
2021/04/11 04:39:06;;;;;;;7.30;3.47;;;;;;;11.09;77.04;98484.63;4994443;28;20276;-73
2021/04/11 04:41:42;;;;;;;6.40;4.65;;;;;;;11.02;77.33;98488.78;4994081;28;20223;-74
2021/04/11 04:44:19;;;;;;;4.20;2.97;;;;;;;10.92;77.49;98483.25;4994201;28;20243;-73
2021/04/11 04:46:53;;;;;;;4.80;3.38;;;;;;;10.80;77.77;98484.16;4994651;28;20183;-73
2021/04/11 04:49:25;;;;;;;7.32;4.35;;;;;;;10.71;78.33;98493.81;4993967;28;20278;-73
2021/04/11 04:51:55;;;;;;;5.30;3.20;;;;;;;10.79;77.58;98490.53;4994125;28;20196;-73
2021/04/11 04:54:31;;;;;;;4.15;2.85;;;;;;;10.76;77.81;98491.66;4994383;28;20665;-74
2021/04/11 04:57:06;;;;;;;7.28;3.08;;;;;;;10.84;77.82;98502.66;4994267;28;20187;-73
2021/04/11 04:59:40;;;;;;;4.90;3.63;;;;;;;10.92;77.27;98503.91;4994416;28;20195;-74
2021/04/11 05:02:10;;;;;;;5.15;3.00;;;;;;;10.94;76.85;98505.50;4994110;28;20207;-74
2021/04/11 05:04:41;;;;;;;3.47;3.17;;;;;;;11.02;76.55;98505.78;4994090;28;20207;-73
2021/04/11 05:07:11;;;;;;;6.78;3.80;;;;;;;11.09;76.27;98502.63;4993097;28;20282;-73
2021/04/11 05:09:43;;;;;;;3.97;3.03;;;;;;;11.26;75.57;98505.72;4994205;28;20560;-74
2021/04/11 05:12:16;;;;;;;6.13;3.63;;;;;;;11.33;74.70;98492.63;4993515;28;20195;-74
2021/04/11 05:14:46;;;;;;;9.63;3.50;;;;;;;11.36;74.96;98486.13;4994017;28;20318;-75
2021/04/11 05:17:18;;;;;;;5.80;3.58;;;;;;;11.42;74.99;98489.19;4993414;28;20188;-75
2021/04/11 05:19:47;;;;;;;4.75;3.28;;;;;;;11.44;73.98;98495.31;4993618;28;20289;-73
2021/04/11 05:22:18;;;;;;;6.30;3.13;;;;;;;11.43;73.63;98496.28;4993638;28;20358;-74
2021/04/11 05:24:47;;;;;;;5.82;4.03;;;;;;;11.44;73.85;98495.31;4992771;28;20223;-74
2021/04/11 05:27:20;;;;;;;4.85;3.35;;;;;;;11.60;72.83;98508.44;4993869;28;20191;-74
2021/04/11 05:29:54;;;;;;;4.15;2.92;;;;;;;11.69;72.27;98498.75;4993765;28;20222;-73
2021/04/11 05:32:21;;;;;;;5.82;3.45;;;;;;;11.59;72.78;98487.00;4993560;28;20187;-74
2021/04/11 05:34:47;;;;;;;6.18;3.90;;;;;;;11.57;72.52;98491.63;4993637;28;20188;-74
2021/04/11 05:37:28;;;;;;;7.63;3.70;;;;;;;11.48;73.30;98499.47;4993541;28;20609;-74
2021/04/11 05:40:03;;;;;;;5.80;3.38;;;;;;;11.42;73.42;98493.72;4993515;28;20522;-73
2021/04/11 05:42:41;;;;;;;6.28;2.70;;;;;;;11.37;73.01;98488.69;4992295;28;20273;-73
2021/04/11 05:45:13;;;;;;;3.40;2.92;;;;;;;11.34;73.17;98497.00;4973483;28;20207;-73
2021/04/11 05:47:52;;;;;;;5.30;3.03;;;;;;;11.37;73.13;98501.31;4973907;28;20192;-73
2021/04/11 05:50:21;;;;;;;3.90;3.33;;;;;;;11.43;72.70;98507.06;4989842;28;20274;-74
2021/04/11 05:52:55;;;;;;;8.15;3.10;;;;;;;11.43;72.77;98511.59;4993509;28;20192;-74
2021/04/11 05:55:24;;;;;;;7.38;3.55;;;;;;;11.51;72.70;98522.66;4993002;28;20231;-73
2021/04/11 05:57:56;;;;;;;4.20;3.00;;;;;;;11.64;72.50;98525.22;4993022;28;20666;-73
2021/04/11 06:00:26;;;;;;;5.22;3.15;;;;;;;11.85;71.57;98526.22;4993088;28;20591;-73
2021/04/11 06:02:55;;;;;;;4.30;2.83;;;;;;;11.97;70.84;98515.44;4992573;28;20215;-73
2021/04/11 06:05:28;;;;;;;3.60;2.80;;;;;;;12.07;70.28;98519.97;4992607;28;20289;-74
2021/04/11 06:08:00;;;;;;;6.20;3.22;;;;;;;12.07;71.00;98511.88;4992800;28;20272;-74
2021/04/11 06:10:32;;;;;;;3.20;2.90;;;;;;;12.15;70.35;98513.09;4992989;28;20191;-74
2021/04/11 06:13:05;;;;;;;3.30;3.00;;;;;;;12.02;69.93;98519.47;4992994;28;20702;-73
2021/04/11 06:15:34;;;;;;;4.65;3.13;;;;;;;12.01;69.86;98530.41;4992948;28;20185;-74
2021/04/11 06:18:05;;;;;;;4.20;3.05;;;;;;;12.04;70.14;98522.91;4992386;28;20226;-74
2021/04/11 06:20:31;;;;;;;5.63;2.95;;;;;;;12.22;69.50;98525.09;4992766;28;20184;-74
2021/04/11 06:23:07;;;;;;;2.70;2.50;;;;;;;12.47;68.42;98526.63;4991189;28;20314;-74
2021/04/11 06:25:38;;;;;;;4.60;3.05;;;;;;;12.74;67.10;98520.75;4992731;28;20233;-73
2021/04/11 06:28:13;;;;;;;3.65;2.90;;;;;;;12.83;66.90;98530.78;4992219;28;20184;-74
2021/04/11 06:30:45;;;;;;;3.72;3.10;;;;;;;12.87;66.83;98529.53;4990630;28;20198;-75
2021/04/11 06:33:16;;;;;;;7.25;2.88;;;;;;;13.00;66.67;98521.25;4987696;28;20624;-75
2021/04/11 06:35:50;;;;;;;4.15;2.97;;;;;;;13.17;66.15;98525.22;4991635;28;20179;-74
2021/04/11 06:38:20;;;;;;;3.55;2.85;;;;;;;13.27;65.85;98517.16;4991555;28;20219;-74
2021/04/11 06:41:16;;;;;;;3.42;3.10;;;;;;;13.61;64.28;98525.06;4991409;28;20617;-74
2021/04/11 06:44:18;;;;;;;5.68;3.70;;;;;;;14.05;62.71;98528.41;4987958;28;20294;-74
2021/04/11 06:47:03;;;;;;;4.72;2.92;;;;;;;14.04;62.36;98526.66;4973529;28;20282;-74
2021/04/11 06:49:54;;;;;;;4.95;3.20;;;;;;;14.21;62.34;98531.44;4989365;28;20200;-74
2021/04/11 06:52:45;;;;;;;4.57;3.20;;;;;;;14.54;62.09;98534.78;4990128;28;20221;-75
2021/04/11 06:55:24;;;;;;;5.53;3.28;;;;;;;14.73;60.98;98532.13;4987879;28;20632;-73
2021/04/11 06:57:57;;;;;;;4.32;3.30;;;;;;;14.77;61.20;98535.44;4988101;28;20663;-73
2021/04/11 07:00:43;;;;;;;5.38;2.85;;;;;;;14.34;61.56;98529.34;4991016;28;20197;-74
2021/04/11 07:03:51;;;;;;;4.43;3.03;;;;;;;13.67;63.82;98529.94;4990941;28;20227;-73
2021/04/11 07:06:56;;;;;;;4.10;3.20;;;;;;;13.37;65.40;98536.19;4964000;28;20721;-74
2021/04/11 07:09:45;;;;;;;5.03;3.00;;;;;;;13.11;66.45;98534.72;4987684;28;20203;-73
2021/04/11 07:12:30;;;;;;;2.95;2.65;;;;;;;13.11;66.78;98523.03;4990011;28;20627;-73
2021/04/11 07:15:25;;;;;;;6.35;3.00;;;;;;;13.17;66.36;98527.06;4989804;28;20279;-73
2021/04/11 07:18:20;;;;;;;8.00;3.58;;;;;;;12.91;67.49;98530.13;4983170;28;20609;-73
2021/04/11 07:21:29;;;;;;;2.80;2.60;;;;;;;13.05;67.32;98535.22;4989018;28;20195;-73
2021/04/11 07:24:41;;;;;;;3.67;3.38;;;;;;;13.27;66.64;98539.66;4989878;28;20263;-73
2021/04/11 07:27:16;;;;;;;6.05;3.55;;;;;;;13.33;65.67;98538.28;4990900;28;20655;-74
2021/04/11 07:30:02;;;;;;;3.47;3.17;;;;;;;13.31;65.33;98543.81;4990023;28;20295;-74
2021/04/11 07:33:03;;;;;;;2.95;2.65;;;;;;;13.24;65.34;98541.75;4992836;28;20211;-75
2021/04/11 07:36:00;;;;;;;3.65;3.30;;;;;;;13.22;65.83;98539.19;4992141;28;20188;-73
2021/04/11 07:38:47;;;;;;;3.42;3.08;;;;;;;13.25;65.85;98547.03;4990457;28;20204;-74
2021/04/11 07:41:53;;;;;;;7.05;4.05;;;;;;;13.20;65.96;98532.19;4992813;28;20191;-73
2021/04/11 07:44:44;;;;;;;3.63;2.97;;;;;;;13.39;65.23;98537.78;4953114;29;20205;-74
2021/04/11 07:47:27;;;;;;;4.93;3.55;;;;;;;13.47;65.47;98540.66;4992091;28;20207;-75
2021/04/11 07:50:44;;;;;;;4.88;3.17;;;;;;;13.40;64.85;98547.59;4993008;28;20274;-74
2021/04/11 07:53:44;;;;;;;3.30;3.00;;;;;;;12.81;67.19;98554.38;4992645;28;20269;-74
2021/04/11 07:56:22;;;;;;;3.92;2.85;;;;;;;12.68;67.76;98570.72;4993752;28;20196;-74
2021/04/11 07:59:20;;;;;;;4.10;3.28;;;;;;;12.71;67.90;98569.63;4994139;28;20195;-74
2021/04/11 08:02:19;;;;;;;7.13;3.65;;;;;;;12.62;68.71;98560.44;4993867;28;20592;-74
2021/04/11 08:05:06;;;;;;;3.95;3.55;;;;;;;12.70;68.85;98568.75;4992317;28;20661;-75
2021/04/11 08:07:56;;;;;;;4.63;3.40;;;;;;;12.76;69.47;98566.56;4993964;28;20223;-75
2021/04/11 08:10:51;;;;;;;4.20;3.30;;;;;;;12.85;69.32;98565.78;4991807;28;20192;-74
2021/04/11 08:13:40;;;;;;;4.72;3.75;;;;;;;12.97;69.36;98574.69;4993164;28;20277;-74
2021/04/11 08:16:22;;;;;;;8.30;4.18;;;;;;;13.02;68.61;98576.00;4990833;28;20200;-74
2021/04/11 08:19:11;;;;;;;5.65;3.28;;;;;;;13.07;68.45;98581.00;4993596;28;20554;-74
2021/04/11 08:21:44;;;;;;;6.32;3.55;;;;;;;13.18;68.48;98586.38;4991905;28;20314;-74
2021/04/11 08:24:49;;;;;;;7.68;3.55;;;;;;;13.25;69.50;98592.13;4993491;28;20251;-74
2021/04/11 08:27:49;;;;;;;3.92;3.40;;;;;;;13.01;71.88;98589.66;4991010;28;20694;-74
2021/04/11 08:30:35;;;;;;;4.00;3.65;;;;;;;13.13;71.20;98586.75;4995140;28;20224;-72
2021/04/11 08:33:15;;;;;;;4.32;3.33;;;;;;;13.06;72.05;98593.69;4993889;28;20326;-74
2021/04/11 08:35:59;;;;;;;5.20;3.75;;;;;;;13.21;72.75;98596.09;4994658;28;20550;-74
2021/04/11 08:39:12;;;;;;;5.43;3.80;;;;;;;13.07;71.39;98587.31;4994459;28;20205;-73
2021/04/11 08:42:04;;;;;;;5.70;3.60;;;;;;;12.89;72.22;98595.09;4977453;28;20577;-74
2021/04/11 08:44:53;;;;;;;6.15;3.40;;;;;;;12.82;72.87;98609.22;5000810;28;20211;-74
2021/04/11 08:47:30;;;;;;;6.20;5.38;;;;;;;12.78;73.50;98613.19;4993982;28;20294;-74
2021/04/11 08:49:59;;;;;;;5.15;4.03;;;;;;;12.60;73.94;98608.31;5001190;28;20264;-74
2021/04/11 08:52:34;;;;;;;4.43;3.63;;;;;;;12.41;74.95;98606.25;5013808;28;20214;-74
2021/04/11 08:55:06;;;;;;;5.10;3.70;;;;;;;12.31;76.50;98613.41;5013519;28;20225;-74
2021/04/11 08:57:45;;;;;;;10.73;7.53;;;;;;;12.26;78.12;98612.91;5013528;28;20230;-74
2021/04/11 09:00:19;;;;;;;5.28;3.88;;;;;;;12.22;79.37;98619.53;5012805;28;20609;-73
2021/04/11 09:03:03;;;;;;;7.53;4.10;;;;;;;11.97;84.25;98629.59;5012996;28;20195;-74
2021/04/11 09:05:38;;;;;;;6.60;4.75;;;;;;;11.89;85.92;98627.50;5013568;28;20191;-74
2021/04/11 09:08:17;;;;;;;4.78;4.25;;;;;;;12.02;86.17;98631.91;5013842;28;20196;-74
2021/04/11 09:11:12;;;;;;;7.63;5.07;;;;;;;12.00;86.76;98625.78;5013710;28;20276;-74
2021/04/11 09:13:54;;;;;;;5.10;4.63;;;;;;;11.90;88.36;98639.16;5005617;28;20234;-73
2021/04/11 09:16:31;;;;;;;5.82;4.60;;;;;;;11.95;89.34;98639.63;5013814;28;20187;-73
2021/04/11 09:19:13;;;;;;;5.88;4.50;;;;;;;11.78;90.51;98640.06;5013507;28;20236;-72
2021/04/11 09:22:15;;;;;;;5.57;5.07;;;;;;;11.96;91.32;98635.97;5013121;28;20579;-73
2021/04/11 09:24:46;;;;;;;7.68;5.07;;;;;;;11.84;90.46;98639.59;5002975;28;20582;-74
2021/04/11 09:27:36;;;;;;;7.30;4.85;;;;;;;11.93;90.39;98638.91;5013444;28;20637;-74
2021/04/11 09:30:12;;;;;;;5.57;5.07;;;;;;;12.03;91.22;98639.91;5012821;28;20191;-74
2021/04/11 09:33:01;;;;;;;6.05;5.45;;;;;;;12.20;89.88;98640.41;5012977;28;20194;-73
2021/04/11 09:35:37;;;;;;;5.22;4.72;;;;;;;12.47;90.14;98632.75;5013116;28;20187;-73
2021/04/11 09:38:37;;;;;;;6.13;5.20;;;;;;;12.81;89.56;98627.28;5012274;28;20186;-73
2021/04/11 09:41:27;;;;;;;5.90;5.30;;;;;;;13.05;87.13;98626.25;4980856;28;20203;-74
2021/04/11 09:44:10;;;;;;;5.90;5.28;;;;;;;13.10;84.45;98629.41;4999843;28;20219;-73
2021/04/11 09:46:55;;;;;;;5.95;4.55;;;;;;;13.30;85.10;98631.31;5013032;28;20216;-74
2021/04/11 09:49:44;;;;;;;7.30;4.53;;;;;;;13.77;80.78;98622.84;5012546;28;20664;-73
2021/04/11 09:52:35;;;;;;;7.63;4.78;;;;;;;13.85;80.18;98624.88;5012002;28;20304;-74
2021/04/11 09:55:12;;;;;;;6.78;4.50;;;;;;;13.55;79.54;98624.69;5012748;28;20533;-72
2021/04/11 09:57:51;;;;;;;6.43;5.22;;;;;;;13.77;80.43;98634.50;5012666;28;20290;-72
2021/04/11 10:00:25;;;;;;;6.80;4.75;;;;;;;13.77;79.75;98633.66;5012739;28;20650;-74
2021/04/11 10:03:05;;;;;;;7.30;5.55;;;;;;;13.91;79.78;98636.00;5012469;28;20286;-73
2021/04/11 10:05:45;;;;;;;5.40;4.90;;;;;;;14.00;78.13;98644.31;5011964;28;20227;-73
2021/04/11 10:08:34;;;;;;;6.07;5.47;;;;;;;13.69;80.13;98636.16;5012460;28;20231;-74
2021/04/11 10:11:15;;;;;;;6.32;5.57;;;;;;;13.67;79.86;98639.00;5012351;28;20279;-73
2021/04/11 10:14:07;;;;;;;11.63;7.30;;;;;;;13.41;79.58;98643.06;5012589;28;20188;-73
2021/04/11 10:16:43;;;;;;;7.05;6.45;;;;;;;13.43;81.08;98638.38;5012318;28;20279;-73
2021/04/11 10:19:38;;;;;;;7.90;6.28;;;;;;;13.59;81.03;98635.22;5012092;28;20271;-74
2021/04/11 10:22:22;;;;;;;7.88;7.05;;;;;;;13.47;81.12;98629.03;5012082;28;20341;-74
2021/04/11 10:25:02;;;;;;;6.88;6.10;;;;;;;13.38;81.15;98633.38;5011960;28;20222;-73
2021/04/11 10:27:35;;;;;;;7.30;6.50;;;;;;;13.54;80.84;98627.50;5011931;28;20226;-74
2021/04/11 10:30:02;;;;;;;7.78;6.57;;;;;;;13.70;80.32;98633.34;5012190;28;20227;-73
2021/04/11 10:32:33;;;;;;;8.23;7.43;;;;;;;13.89;78.62;98639.84;5012080;28;20217;-72
2021/04/11 10:35:11;;;;;;;7.25;6.55;;;;;;;14.01;77.74;98641.47;5012329;28;20196;-74
2021/04/11 10:37:42;;;;;;;7.40;5.75;;;;;;;13.92;78.60;98632.31;5011885;28;20245;-72
2021/04/11 10:40:24;;;;;;;6.38;5.53;;;;;;;13.93;78.98;98634.03;5012529;28;20201;-72
2021/04/11 10:43:04;;;;;;;7.10;5.80;;;;;;;14.18;78.62;98637.31;5012302;28;20214;-72
2021/04/11 10:45:38;;;;;;;6.93;4.75;;;;;;;14.30;76.66;98641.63;5011597;28;20242;-74
2021/04/11 10:48:42;;;;;;;5.60;5.13;;;;;;;14.43;75.11;98645.97;5011190;28;20211;-74
2021/04/11 10:51:23;;;;;;;5.40;4.90;;;;;;;14.43;75.23;98651.38;5011808;28;20194;-73
2021/04/11 10:54:15;;;;;;;6.20;5.70;;;;;;;14.37;75.96;98648.19;5010903;28;20197;-73
2021/04/11 10:56:54;;;;;;;6.82;6.03;;;;;;;14.22;76.35;98646.84;5012018;28;20233;-73
2021/04/11 10:59:40;;;;;;;5.45;4.95;;;;;;;14.08;77.74;98641.78;5011557;28;20609;-73
2021/04/11 11:02:36;;;;;;;9.50;5.50;;;;;;;14.13;76.33;98644.94;5011774;28;20190;-73
2021/04/11 11:05:26;;;;;;;10.13;7.57;;;;;;;13.94;78.74;98646.56;5012541;28;20292;-72
2021/04/11 11:08:26;;;;;;;7.57;6.72;;;;;;;14.09;78.50;98646.22;5015786;28;20703;-72
2021/04/11 11:11:06;;;;;;;7.43;5.15;;;;;;;13.93;78.78;98639.44;5015666;28;20700;-73
2021/04/11 11:13:49;;;;;;;6.80;6.20;;;;;;;14.15;78.46;98643.81;5015479;28;20188;-74
2021/04/11 11:16:29;;;;;;;11.23;6.30;;;;;;;13.97;79.49;98640.91;5015691;28;20240;-73
2021/04/11 11:19:09;;;;;;;8.13;5.38;;;;;;;14.09;80.12;98648.94;5015664;28;20747;-73
2021/04/11 11:21:49;;;;;;;7.18;6.15;;;;;;;14.20;79.67;98640.72;5015178;28;20274;-74
2021/04/11 11:25:09;;;;;;;5.32;4.82;;;;;;;14.22;80.00;98640.56;5015432;28;20220;-73
2021/04/11 11:27:50;;;;;;;5.85;5.28;;;;;;;14.41;77.89;98646.09;4954510;29;20229;-74
2021/04/11 11:30:26;;;;;;;7.68;6.43;;;;;;;14.35;78.80;98644.75;4954536;29;20326;-72
2021/04/11 11:33:14;;;;;;;8.25;5.20;;;;;;;14.16;79.79;98640.13;4999474;28;20213;-72
2021/04/11 11:36:11;;;;;;;6.78;5.55;;;;;;;13.86;80.40;98642.81;5015462;28;20192;-74
2021/04/11 11:38:49;;;;;;;5.78;5.10;;;;;;;13.79;81.57;98633.50;5014013;28;20240;-73
2021/04/11 11:41:24;;;;;;;7.95;4.70;;;;;;;13.90;80.56;98637.00;5015167;28;20220;-72
2021/04/11 11:43:59;;;;;;;6.15;5.55;;;;;;;14.06;80.85;98643.78;5015001;28;20310;-72
2021/04/11 11:46:39;;;;;;;8.45;5.60;;;;;;;14.24;79.51;98649.41;5014719;28;20597;-72
2021/04/11 11:49:17;;;;;;;4.93;4.47;;;;;;;14.30;78.88;98643.47;5015029;28;20200;-73
2021/04/11 11:51:52;;;;;;;6.70;5.10;;;;;;;14.16;78.70;98659.06;5014653;28;20287;-74
2021/04/11 11:54:24;;;;;;;4.30;3.90;;;;;;;13.96;79.26;98657.25;4998329;28;20233;-74
2021/04/11 11:57:06;;;;;;;5.13;4.63;;;;;;;13.87;81.33;98658.91;5014873;28;20212;-74
2021/04/11 11:59:39;;;;;;;5.85;5.10;;;;;;;13.89;81.83;98667.75;5014941;28;20728;-73
2021/04/11 12:02:23;;;;;;;4.50;3.90;;;;;;;13.86;81.50;98664.44;5014149;28;20194;-73
2021/04/11 12:05:02;;;;;;;6.35;4.80;;;;;;;13.73;83.34;98667.38;5011379;28;20231;-73
2021/04/11 12:07:36;;;;;;;5.32;4.82;;;;;;;13.82;82.88;98669.28;5012623;28;20188;-72
2021/04/11 12:10:29;;;;;;;5.03;4.10;;;;;;;13.76;83.84;98672.50;5013828;28;20187;-74
2021/04/11 12:13:13;;;;;;;4.93;4.53;;;;;;;13.75;83.89;98679.78;5010719;28;20207;-74
2021/04/11 12:15:48;;;;;;;5.22;4.45;;;;;;;13.88;83.58;98671.44;5011021;28;20224;-74
2021/04/11 12:18:20;;;;;;;5.30;4.25;;;;;;;13.93;83.34;98673.78;5010413;28;20271;-75